Portada
METAR-TAF:

METAR-TAF

Aeroports :

Alofi, Niue

latitud: 19-04S, longitud: 169-55W, altitud: 20 m

Observació

L'informe es va fer fa 30 minuts, a les 15:00 UTC
Vent 7 kt del Sud
Temperatura 25°C
Humitat 83%
Pressió 1001 hPa

METAR: NIUE 181500Z AUTO 19007KT //// // ///////// 25/22 Q1001.0

Hora: 04:30 (15:30 UTC)

Pronòstic

L'informe es va fer fa 4 hores i 5 minuts, a les 11:25 UTC
Pronòstic vàlid del 18 a les 12 UTC al 19 a les 12 UTC
Vent 5 kt del Sud/Sud-Oest
Visibilitat 10 km o més
Núvols disperses a una alçada de 1700 ft
Cel ennuvolat a una alçada de 10000 ft

TAF: NIUE 181125Z 1812/1912 20005KT 9999 SCT017 BKN100

Observacions i pronòstics meteorològics de més de 4000 aeroports (METAR i TAF).

Les estacions disponibles són els punts grocs i vermells al mapa.

Posi el ratolí al punt desitjat per veure el nom de l'estació.

Feu clic per veure les observacions i els pronòstics meteorològics.

Per canviar el mapa: feu clic els botons verds amb una creu de color negre per apropar; al botó verd amb un guió per allunyar la imatge; o en les fletxes verdes per a mapes adjacents.


METAR-TAF: